Řízení letového provozu České republiky
OPMET data - Ceska Republika Aktualizace: 29.04.2017 05:11:04  UTC
SIGMET / AIRMET - NIL
Warning / Vystraha
VYSTRAHA C. 1 PRO LKAA PLATNOST 290300/290600 RYCHLOST VYSKOVEHO PROUDENI VE E POLOVINE LKAA PRESAHUJE HODNOTU 80KT MEZI HLADINAMI FL240/FL300 ZE SMERU SW=
 
METAR / SPECI
METAR LKCV 290500Z 15005KT CAVOK 02/01 Q1016 NOSIG=
METAR LKKB 290500Z 22008KT 7000 NSC 04/03 Q1016 NOSIG =
METAR LKKU NIL
SPECI LKKV 290505Z VRB01KT 0600 R29/0225N FG SCT002 01/01 Q1015 RMK REG QNH 1012=
SPECI LKLN 290501Z AUTO 20003KT 0500 FG FEW011 SCT091 01/00 Q1017=
METAR LKMT 290500Z 21006KT 9999 FEW007 05/03 Q1016 NOSIG RMK REG QNH 1012=
METAR COR LKNA 290500Z 31008KT 4000 BR NSC 01/01 Q1016 NOSIG=
METAR LKPD 290500Z 10003KT 4000 BR NSC 02/01 Q1016 =
METAR LKPR 290500Z 23012KT 7000 NSC 03/02 Q1016 NOSIG RMK REG QNH 1012=
METAR LKTB 290500Z 17004KT 6000 NSC 02/01 Q1017 NOSIG RMK REG QNH 1012=
METAR LKVO NIL
TAF
TAF COR LKCV 282300Z 2900/3000 27008KT 9999 BKN045      TEMPO 2901/2907 CAVOK      TEMPO 2906/2908 BKN035      TEMPO 2909/2915 CAVOK      TEMPO 2910/2921 8000 SHRA BKN030TCU=
TAF LKKB 282300Z 2900/3000 25006KT 9999 SCT040      TEMPO 2900/2908 CAVOK      TEMPO 2910/2920 28012KT 8000 SHRA BKN025=
TAF LKKU NIL
TAF LKKV 290500Z 2906/3012 22004KT 7000 NSC      TEMPO 2906/2907 1500 BR BKN007      PROB30 TEMPO 2906/2907 0800 FG BKN004      BECMG 2907/2909 9999 SCT030      TEMPO 2909/2917 33010G20KT 7000 SHRA FEW020TCU BKN025      BECMG 2918/2920 VRB02KT CAVOK      PROB30 TEMPO 3003/3005 5000 BR NSC=
TAF LKLN NIL
TAF LKMT 290500Z 2906/3012 23004KT 9000 -RA OVC025      BECMG 2906/2908 23006KT 9999 SCT033      TEMPO 2909/2918 8000 SHRA FEW025TCU BKN030      BECMG 2921/2923 04004KT 3000 BR BKN005      TEMPO 2923/3005 1400 BR OVC003      BECMG 3005/3008 04010KT=
TAF LKNA 282300Z 2900/3000 33010KT 9999 SCT010 BKN025      PROB40 TEMPO 3000/2902 6000 RA BKN007 OVC015      TEMPO 2909/2915 SHRA SCT005 BKN020=
TAF LKPD NIL
TAF LKPR 290500Z 2906/3012 23010KT 9999 SCT040      TEMPO 2909/2919 -SHRA FEW030TCU BKN035      PROB30 TEMPO 2913/2918 32016G30KT 5000 SHRA BKN014 SCT025TCU      BECMG 2919/2921 VRB02KT CAVOK      PROB30 TEMPO 3002/3005 3000 BR NSC      BECMG 3007/3009 08010KT      TEMPO 3009/3012 09012G24KT 9999 BKN030=
TAF LKTB 290500Z 2906/3012 30004KT 9999 SCT035      TEMPO 2908/2919 7000 SHRA FEW025TCU BKN035      BECMG 2919/2921 VRB02KT 3000 BR NSC      TEMPO 2921/3005 1200 BR BKN005      PROB30 TEMPO 2922/3003 0500 FG VV002      BECMG 3005/3008 07010KT 9999 SCT035      TEMPO 3008/3012 BKN030=
TAF LKVO NIL